Time;durP1;ratioP1;P1;durP2;ratioP2;P2;SDS_P1;SDS_P2;PMS_P1;PMS_P2;Temp;Humidity;BMP_temperature;BMP_pressure;BME280_temperature;BME280_humidity;BME280_pressure;Samples;Min_cycle;Max_cycle;Signal;HPM_P1;HPM_P2
2022/07/14 00:00:27;;;;;;;4.00;2.60;;;20.10;99.90;;;;;;5084875;28;20456;-73
2022/07/14 00:02:57;;;;;;;3.03;2.57;;;20.00;99.90;;;;;;5085046;28;20609;-73
2022/07/14 00:05:26;;;;;;;7.27;3.60;;;19.90;99.90;;;;;;5082965;28;20478;-73
2022/07/14 00:07:53;;;;;;;7.90;3.10;;;19.90;99.90;;;;;;5084547;28;20585;-72
2022/07/14 00:10:20;;;;;;;7.80;2.97;;;19.80;99.90;;;;;;5084387;28;20463;-72
2022/07/14 00:12:47;;;;;;;13.03;3.30;;;19.80;99.90;;;;;;5083981;28;20458;-71
2022/07/14 00:15:14;;;;;;;4.20;2.30;;;19.80;99.90;;;;;;5078430;28;21057;-72
2022/07/14 00:17:40;;;;;;;5.43;2.63;;;19.80;99.90;;;;;;5085134;28;20537;-72
2022/07/14 00:20:08;;;;;;;9.03;3.50;;;19.80;99.90;;;;;;5083695;28;20554;-72
2022/07/14 00:22:37;;;;;;;4.87;2.93;;;19.70;99.90;;;;;;5080456;28;20458;-72
2022/07/14 00:25:04;;;;;;;3.50;2.30;;;19.60;99.90;;;;;;5079940;28;20495;-72
2022/07/14 00:27:31;;;;;;;9.97;2.80;;;19.60;99.90;;;;;;5082668;28;20862;-72
2022/07/14 00:29:58;;;;;;;5.20;3.00;;;19.60;99.90;;;;;;5083337;28;20454;-72
2022/07/14 00:32:25;;;;;;;12.03;3.20;;;19.50;99.90;;;;;;5092282;28;20536;-73
2022/07/14 00:34:52;;;;;;;9.70;2.97;;;19.30;99.90;;;;;;5088489;28;20565;-73
2022/07/14 00:37:19;;;;;;;7.20;2.30;;;19.30;99.90;;;;;;5084591;28;20465;-72
2022/07/14 00:39:55;;;;;;;5.40;2.87;;;19.40;99.90;;;;;;5081381;28;20429;-72
2022/07/14 00:42:34;;;;;;;5.30;2.37;;;19.40;99.90;;;;;;5085069;28;20545;-72
2022/07/14 00:45:02;;;;;;;4.63;3.20;;;19.30;99.90;;;;;;5085434;28;21299;-73
2022/07/14 00:47:29;;;;;;;4.57;2.87;;;19.40;99.90;;;;;;5087910;28;21021;-72
2022/07/14 00:49:57;;;;;;;4.97;2.50;;;19.30;99.90;;;;;;5082114;28;20425;-72
2022/07/14 00:52:24;;;;;;;4.13;2.67;;;19.20;99.90;;;;;;5085379;28;21234;-72
2022/07/14 00:54:53;;;;;;;7.70;2.40;;;19.20;99.90;;;;;;5083133;28;20482;-72
2022/07/14 00:57:21;;;;;;;10.43;3.00;;;19.30;99.90;;;;;;5082871;28;20837;-72
2022/07/14 00:59:48;;;;;;;5.13;2.10;;;19.40;99.90;;;;;;5079235;28;20494;-72
2022/07/14 01:02:15;;;;;;;13.00;3.43;;;19.40;99.90;;;;;;5089039;28;20453;-73
2022/07/14 01:04:44;;;;;;;7.37;3.90;;;19.30;99.90;;;;;;5082989;28;20474;-71
2022/07/14 01:07:11;;;;;;;5.97;2.23;;;19.30;99.90;;;;;;5084131;28;20592;-71
2022/07/14 01:09:38;;;;;;;7.03;2.50;;;19.20;99.90;;;;;;5086353;28;20449;-71
2022/07/14 01:12:07;;;;;;;4.13;2.10;;;19.10;99.90;;;;;;5080449;28;20454;-71
2022/07/14 01:14:34;;;;;;;5.13;2.63;;;19.20;99.90;;;;;;5081651;28;20484;-71
2022/07/14 01:17:01;;;;;;;8.30;2.90;;;19.20;99.90;;;;;;5081161;28;20540;-71
2022/07/14 01:19:28;;;;;;;5.30;2.87;;;19.10;99.90;;;;;;5082019;28;20450;-71
2022/07/14 01:21:57;;;;;;;9.20;3.30;;;19.00;99.90;;;;;;5082038;28;20469;-71
2022/07/14 01:24:24;;;;;;;3.20;2.40;;;19.00;99.90;;;;;;5080788;28;20477;-71
2022/07/14 01:26:52;;;;;;;10.43;2.50;;;19.00;99.90;;;;;;5081500;28;20493;-71
2022/07/14 01:29:19;;;;;;;5.07;3.53;;;18.90;99.90;;;;;;5083265;28;20481;-71
2022/07/14 01:31:46;;;;;;;7.93;3.53;;;18.90;99.90;;;;;;5081460;28;20489;-71
2022/07/14 01:34:13;;;;;;;4.57;2.70;;;18.90;99.90;;;;;;5074184;28;20983;-71
2022/07/14 01:36:40;;;;;;;8.90;2.10;;;18.90;99.90;;;;;;5081352;28;20545;-71
2022/07/14 01:39:09;;;;;;;5.53;2.40;;;18.80;99.90;;;;;;5083143;28;20545;-71
2022/07/14 01:41:36;;;;;;;6.63;4.10;;;18.90;99.90;;;;;;5083415;28;20466;-71
2022/07/14 01:44:03;;;;;;;4.30;2.47;;;18.80;99.90;;;;;;5089298;28;20799;-71
2022/07/14 01:46:31;;;;;;;10.23;2.50;;;18.60;99.90;;;;;;5087329;28;20950;-71
2022/07/14 01:48:57;;;;;;;5.73;2.73;;;18.70;99.90;;;;;;5074968;28;20478;-71
2022/07/14 01:51:24;;;;;;;11.53;2.77;;;18.70;99.90;;;;;;5080439;28;20462;-73
2022/07/14 01:53:51;;;;;;;4.43;2.30;;;18.70;99.90;;;;;;5077388;28;20461;-72
2022/07/14 01:56:21;;;;;;;7.20;2.60;;;18.70;99.90;;;;;;5111807;22;20588;-71
2022/07/14 01:58:48;;;;;;;9.83;2.50;;;18.60;99.90;;;;;;5093046;28;20834;-71
2022/07/14 02:04:01;;;;;;;6.80;2.97;;;18.90;99.90;;;;;;5091139;28;20815;-71
2022/07/14 02:06:29;;;;;;;10.93;3.83;;;18.80;99.90;;;;;;5094758;28;20490;-71
2022/07/14 02:08:56;;;;;;;10.97;3.03;;;18.80;99.90;;;;;;5095269;28;21436;-72
2022/07/14 02:14:09;;;;;;;9.83;2.90;;;19.00;99.90;;;;;;5090801;28;20443;-71
2022/07/14 02:16:36;;;;;;;7.40;2.93;;;18.90;99.90;;;;;;5094273;28;20480;-71
2022/07/14 02:19:03;;;;;;;7.83;3.33;;;18.80;99.90;;;;;;5095376;28;20808;-71
2022/07/14 02:21:30;;;;;;;5.30;2.27;;;18.70;99.90;;;;;;5095393;28;21022;-71
2022/07/14 02:23:57;;;;;;;4.53;2.53;;;18.60;99.90;;;;;;5092444;28;20484;-71
2022/07/14 02:26:26;;;;;;;8.67;2.33;;;18.50;99.90;;;;;;5094790;28;20477;-71
2022/07/14 02:28:54;;;;;;;10.17;2.60;;;18.50;99.90;;;;;;5096808;28;20487;-71
2022/07/14 02:31:21;;;;;;;4.00;3.10;;;18.40;99.90;;;;;;5093837;28;20457;-71
2022/07/14 02:33:47;;;;;;;7.33;2.90;;;18.40;99.90;;;;;;5094449;28;20458;-71
2022/07/14 02:36:14;;;;;;;16.47;2.80;;;18.30;99.90;;;;;;5095287;28;20481;-71
2022/07/14 02:38:41;;;;;;;7.47;2.70;;;18.50;99.90;;;;;;5086566;28;21590;-71
2022/07/14 02:41:08;;;;;;;6.63;2.83;;;18.40;99.90;;;;;;5091795;28;20457;-71
2022/07/14 02:43:36;;;;;;;3.23;2.50;;;18.30;99.90;;;;;;5096404;28;20458;-71
2022/07/14 02:46:04;;;;;;;7.60;2.40;;;18.30;99.90;;;;;;5099447;28;20485;-71
2022/07/14 02:48:31;;;;;;;7.10;2.80;;;18.50;99.90;;;;;;5095990;28;20470;-71
2022/07/14 02:51:02;;;;;;;3.97;2.63;;;18.40;99.90;;;;;;5095478;28;20920;-71
2022/07/14 02:53:29;;;;;;;7.47;4.00;;;18.50;99.90;;;;;;5097076;28;20882;-71
2022/07/14 02:55:56;;;;;;;11.40;3.67;;;18.30;99.90;;;;;;5095847;28;20484;-71
2022/07/14 02:58:25;;;;;;;4.83;2.57;;;18.10;99.90;;;;;;5096610;28;20464;-71
2022/07/14 03:00:53;;;;;;;6.83;3.13;;;18.00;99.90;;;;;;5093042;28;20462;-71
2022/07/14 03:03:21;;;;;;;3.50;2.27;;;18.10;99.90;;;;;;5102037;28;20446;-71
2022/07/14 03:05:48;;;;;;;7.50;3.20;;;18.10;99.90;;;;;;5100339;28;20988;-71
2022/07/14 03:08:16;;;;;;;5.30;2.73;;;18.10;99.90;;;;;;5099354;28;20477;-71
2022/07/14 03:10:43;;;;;;;10.90;2.80;;;18.10;99.90;;;;;;5098409;28;20544;-70
2022/07/14 03:13:10;;;;;;;5.30;2.50;;;18.20;99.90;;;;;;5100173;28;20464;-71
2022/07/14 03:15:38;;;;;;;5.97;3.60;;;18.20;99.90;;;;;;5099958;28;20470;-71
2022/07/14 03:18:06;;;;;;;9.23;2.50;;;18.10;99.90;;;;;;5104324;28;20955;-71
2022/07/14 03:20:33;;;;;;;5.87;2.37;;;17.90;99.90;;;;;;5101400;27;20442;-71
2022/07/14 03:23:00;;;;;;;8.60;3.13;;;17.70;99.90;;;;;;5099285;28;20835;-71
2022/07/14 03:25:26;;;;;;;8.30;2.70;;;17.80;99.90;;;;;;5091640;28;20491;-71
2022/07/14 03:27:54;;;;;;;9.83;2.70;;;17.70;99.90;;;;;;5096188;28;21096;-71
2022/07/14 03:30:21;;;;;;;6.77;4.23;;;17.80;99.90;;;;;;5096119;27;20471;-71
2022/07/14 03:32:48;;;;;;;7.17;2.30;;;17.70;99.90;;;;;;5102317;28;20526;-71
2022/07/14 03:35:16;;;;;;;11.10;2.57;;;17.80;99.90;;;;;;5105571;28;20457;-71
2022/07/14 03:37:43;;;;;;;9.90;3.43;;;17.80;99.90;;;;;;5095405;27;20458;-71
2022/07/14 03:40:12;;;;;;;9.97;3.00;;;17.90;99.90;;;;;;5094208;27;20472;-71
2022/07/14 03:42:39;;;;;;;9.97;5.53;;;17.90;99.90;;;;;;5100228;27;20803;-71
2022/07/14 03:45:06;;;;;;;7.13;2.30;;;17.90;99.90;;;;;;5095447;28;20614;-71
2022/07/14 03:47:33;;;;;;;4.00;2.40;;;17.90;99.90;;;;;;5095895;28;20449;-70
2022/07/14 03:50:00;;;;;;;10.03;2.50;;;17.80;99.90;;;;;;5104978;27;20917;-71
2022/07/14 03:52:28;;;;;;;6.70;2.83;;;17.80;99.90;;;;;;5084518;27;20830;-71
2022/07/14 03:54:55;;;;;;;4.40;2.50;;;17.80;99.90;;;;;;5100780;27;20493;-72
2022/07/14 03:57:22;;;;;;;11.40;3.50;;;17.70;99.90;;;;;;5105041;27;20460;-72
2022/07/14 03:59:49;;;;;;;6.93;2.43;;;17.60;99.90;;;;;;5098749;27;20479;-72
2022/07/14 04:02:16;;;;;;;24.03;3.00;;;17.40;99.90;;;;;;5096056;27;20453;-72
2022/07/14 04:04:43;;;;;;;12.30;3.00;;;17.30;99.90;;;;;;5087199;28;20591;-72
2022/07/14 04:07:10;;;;;;;9.90;2.83;;;17.30;99.90;;;;;;5096357;28;20457;-72
2022/07/14 04:09:38;;;;;;;8.13;1.90;;;17.30;99.90;;;;;;5100159;28;20481;-72
2022/07/14 04:12:06;;;;;;;2.77;2.23;;;17.20;99.90;;;;;;5097483;27;20572;-72
2022/07/14 04:14:33;;;;;;;16.47;3.20;;;17.20;99.90;;;;;;5094522;28;20469;-72
2022/07/14 04:17:00;;;;;;;6.07;2.57;;;17.20;99.90;;;;;;5096091;28;20462;-71
2022/07/14 04:19:27;;;;;;;5.53;2.47;;;17.30;99.90;;;;;;5090280;28;20468;-72
2022/07/14 04:21:54;;;;;;;5.80;3.07;;;17.40;99.90;;;;;;5083133;27;20489;-71
2022/07/14 04:24:20;;;;;;;4.07;2.43;;;17.40;99.90;;;;;;5090095;28;20706;-71
2022/07/14 04:26:48;;;;;;;15.63;3.27;;;17.40;99.90;;;;;;5092046;27;21175;-72
2022/07/14 04:29:15;;;;;;;6.17;2.70;;;17.40;99.90;;;;;;5097031;27;20934;-72
2022/07/14 04:31:42;;;;;;;4.60;1.80;;;17.40;99.90;;;;;;5089318;28;20454;-72
2022/07/14 04:34:10;;;;;;;6.00;1.93;;;17.40;99.90;;;;;;5093182;28;20963;-72
2022/07/14 04:36:37;;;;;;;6.30;3.00;;;17.40;99.90;;;;;;5084042;28;20465;-72
2022/07/14 04:39:06;;;;;;;8.57;2.63;;;17.40;99.90;;;;;;5092250;28;20566;-74
2022/07/14 04:41:35;;;;;;;9.87;3.57;;;17.50;99.90;;;;;;5085407;28;20475;-72
2022/07/14 04:44:03;;;;;;;8.93;3.23;;;17.50;99.90;;;;;;5091496;28;20488;-72
2022/07/14 04:46:30;;;;;;;10.20;3.63;;;17.40;99.90;;;;;;5099055;28;20472;-72
2022/07/14 04:54:26;;;;;;;8.60;3.10;;;17.30;99.90;;;;;;5097264;28;20487;-70
2022/07/14 04:56:53;;;;;;;6.90;3.37;;;17.40;99.90;;;;;;5102982;27;20454;-70
2022/07/14 04:59:21;;;;;;;10.83;3.37;;;17.40;99.90;;;;;;5096602;27;20938;-72
2022/07/14 05:01:48;;;;;;;7.10;2.40;;;17.30;99.90;;;;;;5098451;28;20453;-71
2022/07/14 05:04:14;;;;;;;7.37;2.47;;;17.10;99.90;;;;;;5099688;28;20473;-71
2022/07/14 05:06:41;;;;;;;6.93;2.93;;;17.40;99.90;;;;;;5101014;28;20460;-71
2022/07/14 05:09:08;;;;;;;6.57;2.97;;;17.50;99.90;;;;;;5099831;28;20542;-71
2022/07/14 05:11:35;;;;;;;17.43;2.30;;;17.50;99.90;;;;;;5100136;28;20464;-71
2022/07/14 05:14:01;;;;;;;6.00;3.03;;;17.60;99.90;;;;;;5103164;28;20476;-71
2022/07/14 05:16:30;;;;;;;4.53;2.40;;;17.80;99.90;;;;;;5098605;28;21008;-71
2022/07/14 05:18:56;;;;;;;4.93;1.87;;;18.00;99.90;;;;;;5102611;28;20548;-71
2022/07/14 05:21:24;;;;;;;7.20;1.97;;;18.30;99.90;;;;;;5096810;27;20695;-71
2022/07/14 05:23:50;;;;;;;12.00;2.80;;;18.50;99.90;;;;;;5100096;28;20456;-72
2022/07/14 05:26:18;;;;;;;7.47;2.47;;;18.80;99.90;;;;;;5101930;28;20477;-72
2022/07/14 05:28:45;;;;;;;10.10;3.33;;;19.10;99.90;;;;;;5100969;28;20858;-72
2022/07/14 05:31:12;;;;;;;12.30;3.70;;;18.90;99.90;;;;;;5088869;28;20462;-72
2022/07/14 05:33:40;;;;;;;9.93;3.97;;;19.20;99.90;;;;;;5098290;27;20453;-71
2022/07/14 05:36:08;;;;;;;6.83;2.33;;;19.80;99.90;;;;;;5101924;28;20493;-72
2022/07/14 05:38:34;;;;;;;10.90;2.33;;;19.90;99.90;;;;;;5097045;28;21671;-72
2022/07/14 05:41:02;;;;;;;4.93;2.63;;;19.70;99.90;;;;;;5096810;28;20465;-72
2022/07/14 05:43:31;;;;;;;6.27;2.90;;;19.90;99.90;;;;;;5100311;27;20472;-72
2022/07/14 05:46:03;;;;;;;8.37;2.90;;;19.80;99.90;;;;;;5098223;28;20473;-72
2022/07/14 05:48:31;;;;;;;4.40;2.50;;;19.60;99.90;;;;;;5099219;28;20505;-72
2022/07/14 05:51:05;;;;;;;10.40;3.00;;;19.60;99.90;;;;;;5097902;28;20465;-72
2022/07/14 05:53:32;;;;;;;4.37;2.30;;;19.70;99.90;;;;;;5096178;28;20464;-72
2022/07/14 05:55:59;;;;;;;11.60;3.50;;;19.90;99.90;;;;;;5103144;28;20504;-71
2022/07/14 05:58:26;;;;;;;6.93;3.80;;;19.80;99.90;;;;;;5098713;27;20579;-71
2022/07/14 06:00:53;;;;;;;6.13;3.10;;;19.80;99.90;;;;;;5097330;28;20437;-71
2022/07/14 06:03:20;;;;;;;4.70;2.60;;;20.10;99.90;;;;;;5097998;28;23482;-71
2022/07/14 06:05:47;;;;;;;9.13;2.67;;;20.20;99.90;;;;;;5100372;28;20461;-72
2022/07/14 06:08:15;;;;;;;6.30;3.23;;;20.30;99.90;;;;;;5097871;28;20700;-71
2022/07/14 06:10:42;;;;;;;14.93;3.27;;;20.30;99.90;;;;;;5098949;28;20442;-71
2022/07/14 06:13:09;;;;;;;5.07;2.27;;;20.20;99.90;;;;;;5098572;28;20468;-71
2022/07/14 06:15:36;;;;;;;5.60;2.77;;;20.40;99.90;;;;;;5099792;28;20907;-71
2022/07/14 06:18:03;;;;;;;9.03;2.37;;;20.30;99.90;;;;;;5097901;28;20457;-71
2022/07/14 06:20:29;;;;;;;16.73;2.60;;;20.60;99.90;;;;;;5099563;28;20541;-71
2022/07/14 06:22:56;;;;;;;12.00;4.73;;;20.90;99.90;;;;;;5099804;28;20941;-72
2022/07/14 06:25:24;;;;;;;7.30;2.80;;;21.20;99.90;;;;;;5101904;28;20477;-71
2022/07/14 06:27:51;;;;;;;6.73;3.07;;;21.60;99.90;;;;;;5100706;28;20959;-71
2022/07/14 06:30:18;;;;;;;7.60;3.27;;;21.60;99.90;;;;;;5096744;28;20695;-72
2022/07/14 06:32:45;;;;;;;5.90;3.07;;;21.80;99.90;;;;;;5100399;28;20896;-72
2022/07/14 06:35:12;;;;;;;9.53;2.83;;;21.40;99.90;;;;;;5099326;28;20986;-71
2022/07/14 06:37:39;;;;;;;11.47;4.10;;;21.90;99.90;;;;;;5101853;28;20441;-71
2022/07/14 06:40:07;;;;;;;8.03;2.70;;;21.90;99.90;;;;;;5096415;28;20441;-72
2022/07/14 06:42:35;;;;;;;8.60;2.90;;;22.10;99.90;;;;;;5098106;28;21089;-72
2022/07/14 06:45:02;;;;;;;9.73;2.77;;;22.10;99.90;;;;;;5097668;28;20490;-72
2022/07/14 06:47:30;;;;;;;8.87;3.27;;;22.00;99.90;;;;;;5099614;28;20449;-72
2022/07/14 06:49:58;;;;;;;6.63;2.27;;;22.20;99.90;;;;;;5099458;28;20481;-71
2022/07/14 06:52:25;;;;;;;19.37;4.67;;;22.60;99.90;;;;;;5104832;28;20449;-72
2022/07/14 06:54:52;;;;;;;4.27;3.17;;;22.30;99.90;;;;;;5102543;28;20504;-72
2022/07/14 06:57:19;;;;;;;9.00;2.57;;;22.30;99.90;;;;;;5107153;27;20445;-71
2022/07/14 06:59:47;;;;;;;11.20;2.90;;;22.90;99.90;;;;;;5103334;27;23382;-72
2022/07/14 07:02:14;;;;;;;5.97;3.20;;;23.30;99.90;;;;;;5103966;28;20937;-72
2022/07/14 07:04:41;;;;;;;11.77;3.53;;;22.90;99.90;;;;;;5103235;28;21198;-72
2022/07/14 07:07:07;;;;;;;7.40;2.80;;;22.50;99.90;;;;;;5106057;28;20437;-73
2022/07/14 07:09:34;;;;;;;13.07;3.37;;;22.80;99.90;;;;;;5103303;28;20505;-72
2022/07/14 07:12:00;;;;;;;8.20;3.63;;;23.20;99.90;;;;;;5103069;28;20506;-72
2022/07/14 07:14:28;;;;;;;3.03;2.53;;;23.40;99.90;;;;;;5104676;28;20437;-72
2022/07/14 07:16:56;;;;;;;7.17;3.23;;;23.40;99.90;;;;;;5102617;28;20528;-72
2022/07/14 07:19:23;;;;;;;12.00;4.23;;;23.50;99.90;;;;;;5103025;28;20461;-71
2022/07/14 07:21:50;;;;;;;6.63;3.00;;;23.20;99.90;;;;;;5106268;28;20533;-72
2022/07/14 07:24:17;;;;;;;17.33;3.40;;;22.80;99.90;;;;;;5105515;28;20451;-72
2022/07/14 07:26:44;;;;;;;7.70;3.13;;;22.60;99.90;;;;;;5106525;28;20488;-71
2022/07/14 07:29:10;;;;;;;7.83;2.77;;;22.20;99.90;;;;;;5101860;28;20477;-71
2022/07/14 07:31:38;;;;;;;5.87;3.80;;;22.30;99.90;;;;;;5098874;27;20460;-70
2022/07/14 07:34:06;;;;;;;8.00;4.00;;;22.30;99.90;;;;;;5105157;28;20429;-71
2022/07/14 07:36:33;;;;;;;12.17;4.03;;;22.60;99.90;;;;;;5105794;28;20457;-71
2022/07/14 07:39:00;;;;;;;9.80;4.63;;;23.60;99.90;;;;;;5100267;28;20461;-71
2022/07/14 07:41:26;;;;;;;7.77;3.50;;;24.10;99.90;;;;;;5106385;27;20452;-71
2022/07/14 07:43:53;;;;;;;7.67;3.07;;;24.80;99.90;;;;;;5105590;28;20445;-71
2022/07/14 07:46:20;;;;;;;11.13;3.90;;;25.50;99.90;;;;;;5104779;27;20456;-72
2022/07/14 07:48:47;;;;;;;7.07;3.83;;;26.10;99.90;;;;;;5107311;28;20438;-72
2022/07/14 07:51:15;;;;;;;7.87;3.73;;;27.00;99.90;;;;;;5105599;27;20832;-72
2022/07/14 07:53:43;;;;;;;6.60;2.50;;;27.80;99.90;;;;;;5104516;28;20441;-71
2022/07/14 07:56:13;;;;;;;10.00;3.77;;;28.00;99.90;;;;;;5122407;22;20931;-75
2022/07/14 07:58:42;;;;;;;9.57;3.67;;;27.00;99.90;;;;;;5081196;28;20771;-76
2022/07/14 08:01:09;;;;;;;7.60;3.80;;;25.60;99.90;;;;;;5082277;28;20752;-76
2022/07/14 08:03:39;;;;;;;6.07;2.83;;;26.00;99.90;;;;;;5083998;28;20451;-76
2022/07/14 08:06:06;;;;;;;7.80;2.83;;;26.10;99.90;;;;;;5080493;28;20478;-77
2022/07/14 08:08:34;;;;;;;7.27;2.90;;;26.70;99.90;;;;;;5085507;28;20542;-76
2022/07/14 08:11:12;;;;;;;6.90;3.37;;;26.90;99.90;;;;;;5082601;28;20486;-76
2022/07/14 08:13:39;;;;;;;8.93;3.87;;;26.90;99.90;;;;;;5084306;28;20470;-75
2022/07/14 08:16:09;;;;;;;5.27;2.90;;;27.20;99.90;;;;;;5084387;28;20461;-75
2022/07/14 08:18:39;;;;;;;5.10;2.10;;;27.40;99.90;;;;;;5085838;28;20438;-75
2022/07/14 08:21:06;;;;;;;7.93;3.13;;;28.00;99.90;;;;;;5084172;28;20454;-76
2022/07/14 08:23:36;;;;;;;6.60;2.97;;;27.80;99.90;;;;;;5084742;28;20450;-75
2022/07/14 08:26:07;;;;;;;5.57;2.23;;;27.80;99.90;;;;;;5083244;28;20474;-75
2022/07/14 08:28:36;;;;;;;7.20;3.10;;;28.60;99.90;;;;;;5086571;28;20474;-77
2022/07/14 08:31:04;;;;;;;5.13;2.90;;;28.80;97.80;;;;;;5081740;28;20541;-76
2022/07/14 08:33:34;;;;;;;6.30;2.80;;;29.50;95.40;;;;;;5085223;28;20467;-76
2022/07/14 08:36:04;;;;;;;8.93;2.70;;;28.80;94.90;;;;;;5085760;28;20932;-76
2022/07/14 08:38:31;;;;;;;8.57;2.37;;;28.00;95.80;;;;;;5083831;28;20602;-76
2022/07/14 08:41:08;;;;;;;8.70;3.73;;;27.40;96.60;;;;;;5078216;28;21067;-76
2022/07/14 08:43:47;;;;;;;7.53;2.50;;;26.80;97.70;;;;;;5085668;28;20794;-76
2022/07/14 08:46:18;;;;;;;4.60;3.23;;;27.10;97.90;;;;;;5082388;28;20466;-77
2022/07/14 08:48:48;;;;;;;8.90;2.33;;;27.20;97.50;;;;;;5082697;28;20520;-76
2022/07/14 08:51:19;;;;;;;4.73;1.70;;;28.10;97.60;;;;;;5085719;28;20506;-77
2022/07/14 08:53:46;;;;;;;10.43;2.90;;;29.00;94.90;;;;;;5083543;28;20612;-74
2022/07/14 08:56:15;;;;;;;7.33;2.10;;;28.60;93.30;;;;;;5081307;28;20831;-75
2022/07/14 08:58:45;;;;;;;2.43;1.53;;;28.40;93.70;;;;;;5084079;28;20482;-75
2022/07/14 09:01:15;;;;;;;3.87;1.83;;;29.10;91.10;;;;;;5080829;28;20444;-76
2022/07/14 09:03:49;;;;;;;4.03;2.30;;;29.30;90.40;;;;;;5083141;28;20445;-75
2022/07/14 09:06:53;;;;;;;4.83;1.83;;;29.20;89.50;;;;;;5082459;28;20822;-75
2022/07/14 09:09:25;;;;;;;10.10;2.73;;;29.40;90.90;;;;;;5084668;28;20531;-75
2022/07/14 09:11:58;;;;;;;3.30;2.13;;;28.90;90.00;;;;;;5083421;28;20445;-77
2022/07/14 09:14:27;;;;;;;11.00;2.57;;;29.60;90.60;;;;;;5082547;28;20452;-76
2022/07/14 09:17:15;;;;;;;6.13;3.47;;;30.40;87.60;;;;;;5084966;28;20469;-75
2022/07/14 09:20:06;;;;;;;5.67;2.00;;;30.90;86.60;;;;;;5083738;28;20539;-76
2022/07/14 09:22:36;;;;;;;8.77;2.00;;;31.20;77.80;;;;;;5084250;28;20531;-76
2022/07/14 09:25:08;;;;;;;5.67;1.80;;;30.60;76.40;;;;;;5083077;28;20463;-77
2022/07/14 09:27:41;;;;;;;7.73;1.93;;;30.50;76.20;;;;;;5082823;28;21012;-75
2022/07/14 09:30:11;;;;;;;3.53;1.50;;;30.80;74.30;;;;;;5082971;28;21004;-75
2022/07/14 09:32:49;;;;;;;4.90;1.70;;;30.50;75.90;;;;;;5085092;28;20480;-75
2022/07/14 09:35:21;;;;;;;10.53;2.57;;;30.60;74.90;;;;;;5082129;28;20808;-77
2022/07/14 09:37:51;;;;;;;2.00;1.10;;;30.90;75.10;;;;;;5082804;28;20443;-76
2022/07/14 09:40:27;;;;;;;6.87;1.53;;;30.60;75.20;;;;;;5083837;28;20537;-76
2022/07/14 09:43:00;;;;;;;8.17;1.80;;;29.50;75.80;;;;;;5079447;28;20464;-75
2022/07/14 09:45:29;;;;;;;3.03;1.67;;;29.30;78.30;;;;;;5082851;28;20824;-77
2022/07/14 09:48:07;;;;;;;7.33;1.87;;;29.10;79.00;;;;;;5081925;28;20457;-75
2022/07/14 09:50:54;;;;;;;4.67;1.37;;;30.20;75.70;;;;;;5079476;28;20512;-76
2022/07/14 09:53:27;;;;;;;3.87;1.47;;;29.70;77.30;;;;;;5081919;28;20861;-75
2022/07/14 09:55:58;;;;;;;2.07;1.20;;;31.40;72.50;;;;;;5082541;28;20488;-75
2022/07/14 09:58:29;;;;;;;3.17;1.20;;;31.80;70.30;;;;;;5081564;28;20577;-76
2022/07/14 10:01:00;;;;;;;3.53;1.53;;;32.40;66.90;;;;;;5085977;28;20450;-78
2022/07/14 10:03:30;;;;;;;3.03;1.53;;;32.70;66.30;;;;;;5081182;28;20437;-76
2022/07/14 10:06:00;;;;;;;2.27;1.20;;;32.20;61.40;;;;;;5081287;28;20995;-74
2022/07/14 10:08:31;;;;;;;1.97;1.17;;;32.00;61.10;;;;;;5081526;28;20541;-75
2022/07/14 10:11:00;;;;;;;3.47;1.20;;;31.40;60.90;;;;;;5081646;28;20600;-75
2022/07/14 10:13:29;;;;;;;8.80;1.40;;;31.30;64.80;;;;;;5083344;28;20487;-75
2022/07/14 10:16:02;;;;;;;3.13;1.33;;;30.90;58.40;;;;;;5076799;28;20576;-75
2022/07/14 10:18:29;;;;;;;3.00;1.10;;;31.30;58.00;;;;;;5083311;28;20535;-76
2022/07/14 10:21:05;;;;;;;2.00;1.20;;;32.00;57.60;;;;;;5084404;28;20474;-75
2022/07/14 10:23:33;;;;;;;2.70;1.13;;;32.10;57.30;;;;;;5084052;28;20486;-75
2022/07/14 10:26:00;;;;;;;2.13;1.00;;;32.50;56.30;;;;;;5078916;28;20538;-73
2022/07/14 10:28:32;;;;;;;3.73;1.43;;;32.30;55.90;;;;;;5084689;28;20449;-76
2022/07/14 10:31:14;;;;;;;2.10;0.83;;;31.80;57.10;;;;;;5079535;28;21001;-74
2022/07/14 10:33:51;;;;;;;4.63;1.60;;;32.50;55.80;;;;;;5077510;28;20826;-76
2022/07/14 10:36:23;;;;;;;5.57;1.20;;;32.70;56.00;;;;;;5083131;28;20693;-75
2022/07/14 10:39:06;;;;;;;3.60;1.27;;;32.40;55.50;;;;;;5080441;28;20542;-75
2022/07/14 10:41:47;;;;;;;7.70;1.90;;;32.10;56.60;;;;;;5082191;28;23001;-76
2022/07/14 10:44:20;;;;;;;1.50;1.10;;;32.10;55.60;;;;;;5079407;28;20462;-77
2022/07/14 10:47:06;;;;;;;2.83;1.40;;;31.60;56.10;;;;;;5082824;28;20843;-76
2022/07/14 10:50:09;;;;;;;3.60;1.40;;;32.30;56.70;;;;;;5083845;28;20478;-76
2022/07/14 10:52:39;;;;;;;7.77;1.63;;;32.30;55.50;;;;;;5083559;28;20530;-76
2022/07/14 10:55:15;;;;;;;3.53;1.40;;;32.50;56.40;;;;;;5083755;28;20496;-76
2022/07/14 10:58:16;;;;;;;4.30;1.40;;;31.80;56.60;;;;;;5082415;28;20777;-76
2022/07/14 11:01:00;;;;;;;2.57;1.23;;;32.30;56.90;;;;;;5082396;28;20942;-76
2022/07/14 11:03:45;;;;;;;1.87;1.10;;;33.00;55.70;;;;;;5076979;28;20464;-76
2022/07/14 11:06:31;;;;;;;8.10;1.50;;;32.80;54.00;;;;;;5079218;28;20487;-76
2022/07/14 11:09:38;;;;;;;2.97;1.10;;;32.50;54.30;;;;;;5079349;28;20543;-76
2022/07/14 11:12:10;;;;;;;3.23;1.30;;;32.10;54.50;;;;;;5080631;28;20471;-75
2022/07/14 11:14:43;;;;;;;2.07;1.13;;;32.60;55.90;;;;;;5082868;28;20458;-76
2022/07/14 11:17:41;;;;;;;2.30;1.80;;;32.00;54.40;;;;;;5080618;28;20469;-75
2022/07/14 11:20:11;;;;;;;4.13;2.53;;;32.60;54.30;;;;;;5081437;28;20449;-76
2022/07/14 11:22:44;;;;;;;2.73;1.20;;;32.50;54.10;;;;;;5083795;28;20471;-75
2022/07/14 11:25:28;;;;;;;2.70;1.40;;;32.60;55.60;;;;;;5079303;28;20799;-76
2022/07/14 11:27:59;;;;;;;7.30;1.50;;;32.40;54.30;;;;;;5081752;28;20535;-74
2022/07/14 11:30:32;;;;;;;3.97;1.47;;;32.50;54.30;;;;;;5076213;28;20824;-76
2022/07/14 11:33:12;;;;;;;3.13;1.40;;;32.60;53.90;;;;;;5080944;28;20450;-75
2022/07/14 11:38:33;;;;;;;2.30;1.30;;;32.80;53.90;;;;;;5083066;28;20448;-75
2022/07/14 11:41:13;;;;;;;3.10;1.30;;;32.60;53.10;;;;;;5083441;28;20552;-75
2022/07/14 11:43:54;;;;;;;1.97;1.40;;;32.50;52.10;;;;;;5087496;28;20472;-75
2022/07/14 11:46:26;;;;;;;2.70;1.20;;;32.50;51.40;;;;;;5084158;28;20452;-75
2022/07/14 11:48:56;;;;;;;5.10;1.83;;;32.00;53.70;;;;;;5081017;28;20460;-75
2022/07/14 11:51:25;;;;;;;4.07;2.00;;;31.70;54.90;;;;;;5085481;28;20605;-75
2022/07/14 11:54:03;;;;;;;3.33;1.57;;;31.40;55.00;;;;;;5086895;28;20437;-75
2022/07/14 11:56:31;;;;;;;7.33;1.40;;;31.40;54.20;;;;;;5083956;28;20486;-75
2022/07/14 11:59:03;;;;;;;2.10;1.63;;;32.00;53.90;;;;;;5084662;28;20465;-75
2022/07/14 12:01:34;;;;;;;3.17;1.73;;;32.60;53.50;;;;;;5085778;28;20437;-75
2022/07/14 12:04:11;;;;;;;1.50;1.17;;;32.30;52.90;;;;;;5088889;28;20867;-75
2022/07/14 12:06:40;;;;;;;3.10;1.80;;;33.10;52.60;;;;;;5080411;28;20479;-75
2022/07/14 12:09:11;;;;;;;1.73;1.20;;;32.50;51.70;;;;;;5084436;28;20450;-76
2022/07/14 12:11:49;;;;;;;3.70;1.57;;;33.00;51.20;;;;;;5084001;28;20484;-75
2022/07/14 12:14:18;;;;;;;1.80;1.37;;;33.30;49.90;;;;;;5083688;28;20441;-75
2022/07/14 12:16:49;;;;;;;1.50;1.10;;;31.60;51.50;;;;;;5081561;28;20507;-75
2022/07/14 12:19:16;;;;;;;3.53;1.67;;;31.80;51.10;;;;;;5085351;28;20941;-75
2022/07/14 12:21:43;;;;;;;7.13;1.70;;;31.60;50.40;;;;;;5084002;28;20490;-75
2022/07/14 12:24:11;;;;;;;2.53;1.17;;;30.80;51.60;;;;;;5080086;28;20530;-76
2022/07/14 12:26:39;;;;;;;1.90;1.27;;;31.10;50.50;;;;;;5081330;28;20471;-76
2022/07/14 12:29:08;;;;;;;2.10;1.50;;;30.80;51.90;;;;;;5083490;28;20456;-75
2022/07/14 12:31:43;;;;;;;3.20;1.60;;;30.40;51.70;;;;;;5082822;28;20486;-75
2022/07/14 12:34:19;;;;;;;5.13;1.57;;;29.70;53.70;;;;;;5085594;28;20541;-73
2022/07/14 12:36:47;;;;;;;1.40;1.23;;;29.80;52.40;;;;;;5082210;28;20451;-75
2022/07/14 12:39:16;;;;;;;3.87;1.60;;;30.10;53.20;;;;;;5085791;28;20490;-74
2022/07/14 12:41:46;;;;;;;2.60;1.40;;;30.20;53.30;;;;;;5083685;28;20440;-77
2022/07/14 12:44:15;;;;;;;3.33;1.53;;;29.70;52.80;;;;;;5080855;28;20447;-76
2022/07/14 12:46:45;;;;;;;2.97;1.30;;;29.30;53.50;;;;;;5085082;28;20545;-75
2022/07/14 12:49:12;;;;;;;1.57;1.20;;;29.30;53.80;;;;;;5086679;28;20446;-76
2022/07/14 12:51:43;;;;;;;4.13;1.40;;;29.50;54.80;;;;;;5084244;28;20592;-75
2022/07/14 12:54:15;;;;;;;2.60;1.13;;;30.10;53.90;;;;;;5085837;28;20987;-75
2022/07/14 12:56:55;;;;;;;5.20;1.70;;;30.90;51.60;;;;;;5082159;28;20511;-76
2022/07/14 12:59:38;;;;;;;2.90;1.40;;;31.30;51.60;;;;;;5078436;28;20770;-76
2022/07/14 13:02:06;;;;;;;3.80;1.93;;;31.70;50.80;;;;;;5083260;28;20452;-76
2022/07/14 13:04:38;;;;;;;3.10;1.77;;;32.30;50.80;;;;;;5084604;28;20447;-76
2022/07/14 13:07:15;;;;;;;1.40;1.13;;;33.10;48.60;;;;;;5082885;28;20497;-76
2022/07/14 13:10:11;;;;;;;5.63;1.70;;;32.80;48.70;;;;;;5084988;28;20435;-77
2022/07/14 13:12:46;;;;;;;1.93;1.20;;;33.40;48.80;;;;;;5084652;28;20481;-76